sensor_id;sensor_type;location;lat;lon;timestamp;temperature;humidity
1778;DHT22;886;50.082;8.222;2022-11-11T00:01:56;7.00;99.90
1778;DHT22;886;50.082;8.222;2022-11-11T00:04:24;7.10;99.90
1778;DHT22;886;50.082;8.222;2022-11-11T00:06:51;7.10;99.90
1778;DHT22;886;50.082;8.222;2022-11-11T00:09:20;7.10;99.90
1778;DHT22;886;50.082;8.222;2022-11-11T00:11:54;7.10;99.90
1778;DHT22;886;50.082;8.222;2022-11-11T00:14:20;7.00;99.90
1778;DHT22;886;50.082;8.222;2022-11-11T00:16:53;7.10;99.90
1778;DHT22;886;50.082;8.222;2022-11-11T00:19:41;7.20;99.90
1778;DHT22;886;50.082;8.222;2022-11-11T00:22:30;7.10;99.90
1778;DHT22;886;50.082;8.222;2022-11-11T00:25:18;7.10;99.90
1778;DHT22;886;50.082;8.222;2022-11-11T00:27:49;7.20;99.90
1778;DHT22;886;50.082;8.222;2022-11-11T00:30:19;7.20;99.90
1778;DHT22;886;50.082;8.222;2022-11-11T00:32:46;7.00;99.90
1778;DHT22;886;50.082;8.222;2022-11-11T00:35:14;7.00;99.90
1778;DHT22;886;50.082;8.222;2022-11-11T00:38:24;7.00;99.90
1778;DHT22;886;50.082;8.222;2022-11-11T00:41:15;7.00;99.90
1778;DHT22;886;50.082;8.222;2022-11-11T00:43:45;7.00;99.90
1778;DHT22;886;50.082;8.222;2022-11-11T00:46:13;7.10;99.90
1778;DHT22;886;50.082;8.222;2022-11-11T00:49:00;7.10;99.90
1778;DHT22;886;50.082;8.222;2022-11-11T00:51:46;7.00;99.90
1778;DHT22;886;50.082;8.222;2022-11-11T00:54:13;6.90;99.90
1778;DHT22;886;50.082;8.222;2022-11-11T00:56:47;6.90;99.90
1778;DHT22;886;50.082;8.222;2022-11-11T00:59:14;7.00;99.90
1778;DHT22;886;50.082;8.222;2022-11-11T01:01:47;7.10;99.90
1778;DHT22;886;50.082;8.222;2022-11-11T01:04:14;7.10;99.90
1778;DHT22;886;50.082;8.222;2022-11-11T01:06:41;7.10;99.90
1778;DHT22;886;50.082;8.222;2022-11-11T01:09:12;7.20;99.90
1778;DHT22;886;50.082;8.222;2022-11-11T01:11:39;7.20;99.90
1778;DHT22;886;50.082;8.222;2022-11-11T01:14:07;7.10;99.90
1778;DHT22;886;50.082;8.222;2022-11-11T01:16:46;7.00;99.90
1778;DHT22;886;50.082;8.222;2022-11-11T01:19:13;7.10;99.90
1778;DHT22;886;50.082;8.222;2022-11-11T01:21:46;7.20;99.90
1778;DHT22;886;50.082;8.222;2022-11-11T01:24:13;7.20;99.90
1778;DHT22;886;50.082;8.222;2022-11-11T01:26:46;7.20;99.90
1778;DHT22;886;50.082;8.222;2022-11-11T01:29:15;7.10;99.90
1778;DHT22;886;50.082;8.222;2022-11-11T01:31:42;7.00;99.90
1778;DHT22;886;50.082;8.222;2022-11-11T01:34:09;6.90;99.90
1778;DHT22;886;50.082;8.222;2022-11-11T01:36:36;7.00;99.90
1778;DHT22;886;50.082;8.222;2022-11-11T01:39:03;7.10;99.90
1778;DHT22;886;50.082;8.222;2022-11-11T01:41:32;7.20;99.90
1778;DHT22;886;50.082;8.222;2022-11-11T01:44:02;7.30;99.90
1778;DHT22;886;50.082;8.222;2022-11-11T01:46:44;7.30;99.90
1778;DHT22;886;50.082;8.222;2022-11-11T01:49:23;7.50;99.90
1778;DHT22;886;50.082;8.222;2022-11-11T01:52:06;7.50;99.90
1778;DHT22;886;50.082;8.222;2022-11-11T01:54:39;7.60;99.90
1778;DHT22;886;50.082;8.222;2022-11-11T01:57:14;7.60;99.90
1778;DHT22;886;50.082;8.222;2022-11-11T01:59:45;7.50;99.90
1778;DHT22;886;50.082;8.222;2022-11-11T02:02:21;7.50;99.90
1778;DHT22;886;50.082;8.222;2022-11-11T02:04:56;7.50;99.90
1778;DHT22;886;50.082;8.222;2022-11-11T02:07:42;7.40;99.90
1778;DHT22;886;50.082;8.222;2022-11-11T02:10:15;7.40;99.90
1778;DHT22;886;50.082;8.222;2022-11-11T02:12:44;7.30;99.90
1778;DHT22;886;50.082;8.222;2022-11-11T02:15:30;7.40;99.90
1778;DHT22;886;50.082;8.222;2022-11-11T02:17:58;7.50;99.90
1778;DHT22;886;50.082;8.222;2022-11-11T02:20:31;7.50;99.90
1778;DHT22;886;50.082;8.222;2022-11-11T02:23:03;7.50;99.90
1778;DHT22;886;50.082;8.222;2022-11-11T02:25:39;7.40;99.90
1778;DHT22;886;50.082;8.222;2022-11-11T02:28:09;7.40;99.90
1778;DHT22;886;50.082;8.222;2022-11-11T02:30:38;7.40;99.90
1778;DHT22;886;50.082;8.222;2022-11-11T02:33:14;7.50;99.90
1778;DHT22;886;50.082;8.222;2022-11-11T02:35:44;7.60;99.90
1778;DHT22;886;50.082;8.222;2022-11-11T02:38:12;7.60;99.90
1778;DHT22;886;50.082;8.222;2022-11-11T02:40:44;7.60;99.90
1778;DHT22;886;50.082;8.222;2022-11-11T02:43:35;7.70;99.90
1778;DHT22;886;50.082;8.222;2022-11-11T02:46:04;7.80;99.90
1778;DHT22;886;50.082;8.222;2022-11-11T02:48:33;7.80;99.90
1778;DHT22;886;50.082;8.222;2022-11-11T02:51:00;7.70;99.90
1778;DHT22;886;50.082;8.222;2022-11-11T02:53:28;7.70;99.90
1778;DHT22;886;50.082;8.222;2022-11-11T02:55:57;7.70;99.90
1778;DHT22;886;50.082;8.222;2022-11-11T02:58:27;7.80;99.90
1778;DHT22;886;50.082;8.222;2022-11-11T03:00:54;7.70;99.90
1778;DHT22;886;50.082;8.222;2022-11-11T03:03:22;7.80;99.90
1778;DHT22;886;50.082;8.222;2022-11-11T03:05:55;7.80;99.90
1778;DHT22;886;50.082;8.222;2022-11-11T03:08:28;7.70;99.90
1778;DHT22;886;50.082;8.222;2022-11-11T03:10:57;7.80;99.90
1778;DHT22;886;50.082;8.222;2022-11-11T03:13:24;7.70;99.90
1778;DHT22;886;50.082;8.222;2022-11-11T03:15:51;7.70;99.90
1778;DHT22;886;50.082;8.222;2022-11-11T03:18:19;7.80;99.90
1778;DHT22;886;50.082;8.222;2022-11-11T03:20:46;7.70;99.90
1778;DHT22;886;50.082;8.222;2022-11-11T03:23:54;7.80;99.90
1778;DHT22;886;50.082;8.222;2022-11-11T03:26:25;7.80;99.90
1778;DHT22;886;50.082;8.222;2022-11-11T03:28:54;7.60;99.90
1778;DHT22;886;50.082;8.222;2022-11-11T03:31:30;7.50;99.90
1778;DHT22;886;50.082;8.222;2022-11-11T03:33:57;7.50;99.90
1778;DHT22;886;50.082;8.222;2022-11-11T03:36:44;7.50;99.90
1778;DHT22;886;50.082;8.222;2022-11-11T03:39:30;7.60;99.90
1778;DHT22;886;50.082;8.222;2022-11-11T03:41:58;7.60;99.90
1778;DHT22;886;50.082;8.222;2022-11-11T03:44:28;7.60;99.90
1778;DHT22;886;50.082;8.222;2022-11-11T03:46:55;7.60;99.90
1778;DHT22;886;50.082;8.222;2022-11-11T03:49:25;7.60;99.90
1778;DHT22;886;50.082;8.222;2022-11-11T03:51:57;7.60;99.90
1778;DHT22;886;50.082;8.222;2022-11-11T03:54:25;7.70;99.90
1778;DHT22;886;50.082;8.222;2022-11-11T03:56:52;7.60;99.90
1778;DHT22;886;50.082;8.222;2022-11-11T03:59:40;7.60;99.90
1778;DHT22;886;50.082;8.222;2022-11-11T04:02:09;7.70;99.90
1778;DHT22;886;50.082;8.222;2022-11-11T04:05:11;7.60;99.90
1778;DHT22;886;50.082;8.222;2022-11-11T04:07:57;7.70;99.90
1778;DHT22;886;50.082;8.222;2022-11-11T04:10:42;7.70;99.90
1778;DHT22;886;50.082;8.222;2022-11-11T04:13:09;7.70;99.90
1778;DHT22;886;50.082;8.222;2022-11-11T04:15:57;7.80;99.90
1778;DHT22;886;50.082;8.222;2022-11-11T04:18:34;7.70;99.90
1778;DHT22;886;50.082;8.222;2022-11-11T04:21:21;7.80;99.90
1778;DHT22;886;50.082;8.222;2022-11-11T04:24:11;7.70;99.90
1778;DHT22;886;50.082;8.222;2022-11-11T04:26:59;7.70;99.90
1778;DHT22;886;50.082;8.222;2022-11-11T04:29:29;7.80;99.90
1778;DHT22;886;50.082;8.222;2022-11-11T04:32:01;7.80;99.90
1778;DHT22;886;50.082;8.222;2022-11-11T04:34:56;7.70;99.90
1778;DHT22;886;50.082;8.222;2022-11-11T04:37:32;7.70;99.90
1778;DHT22;886;50.082;8.222;2022-11-11T04:40:00;7.70;99.90
1778;DHT22;886;50.082;8.222;2022-11-11T04:42:46;7.60;99.90
1778;DHT22;886;50.082;8.222;2022-11-11T04:45:19;7.50;99.90
1778;DHT22;886;50.082;8.222;2022-11-11T04:48:05;7.60;99.90
1778;DHT22;886;50.082;8.222;2022-11-11T04:50:34;7.60;99.90
1778;DHT22;886;50.082;8.222;2022-11-11T04:53:03;7.60;99.90
1778;DHT22;886;50.082;8.222;2022-11-11T04:55:32;7.50;99.90
1778;DHT22;886;50.082;8.222;2022-11-11T04:58:19;7.40;99.90
1778;DHT22;886;50.082;8.222;2022-11-11T05:00:52;7.50;99.90
1778;DHT22;886;50.082;8.222;2022-11-11T05:03:26;7.50;99.90
1778;DHT22;886;50.082;8.222;2022-11-11T05:05:55;7.60;99.90
1778;DHT22;886;50.082;8.222;2022-11-11T05:08:42;7.40;99.90
1778;DHT22;886;50.082;8.222;2022-11-11T05:11:24;7.40;99.90
1778;DHT22;886;50.082;8.222;2022-11-11T05:13:53;7.40;99.90
1778;DHT22;886;50.082;8.222;2022-11-11T05:16:42;7.50;99.90
1778;DHT22;886;50.082;8.222;2022-11-11T05:19:30;7.40;99.90
1778;DHT22;886;50.082;8.222;2022-11-11T05:22:22;7.40;99.90
1778;DHT22;886;50.082;8.222;2022-11-11T05:24:51;7.40;99.90
1778;DHT22;886;50.082;8.222;2022-11-11T05:27:39;7.30;99.90
1778;DHT22;886;50.082;8.222;2022-11-11T05:30:13;7.40;99.90
1778;DHT22;886;50.082;8.222;2022-11-11T05:32:41;7.30;99.90
1778;DHT22;886;50.082;8.222;2022-11-11T05:35:11;7.30;99.90
1778;DHT22;886;50.082;8.222;2022-11-11T05:37:38;7.20;99.90
1778;DHT22;886;50.082;8.222;2022-11-11T05:40:10;7.20;99.90
1778;DHT22;886;50.082;8.222;2022-11-11T05:42:40;7.20;99.90
1778;DHT22;886;50.082;8.222;2022-11-11T05:45:16;7.20;99.90
1778;DHT22;886;50.082;8.222;2022-11-11T05:47:43;7.10;99.90
1778;DHT22;886;50.082;8.222;2022-11-11T05:50:11;6.90;99.90
1778;DHT22;886;50.082;8.222;2022-11-11T05:52:38;6.90;99.90
1778;DHT22;886;50.082;8.222;2022-11-11T05:55:06;7.00;99.90
1778;DHT22;886;50.082;8.222;2022-11-11T05:57:34;7.00;99.90
1778;DHT22;886;50.082;8.222;2022-11-11T06:00:01;7.00;99.90
1778;DHT22;886;50.082;8.222;2022-11-11T06:02:28;7.00;99.90
1778;DHT22;886;50.082;8.222;2022-11-11T06:04:55;7.10;99.90
1778;DHT22;886;50.082;8.222;2022-11-11T06:07:36;7.00;99.90
1778;DHT22;886;50.082;8.222;2022-11-11T06:10:05;7.00;99.90
1778;DHT22;886;50.082;8.222;2022-11-11T06:12:51;7.00;99.90
1778;DHT22;886;50.082;8.222;2022-11-11T06:15:31;7.10;99.90
1778;DHT22;886;50.082;8.222;2022-11-11T06:18:01;7.10;99.90
1778;DHT22;886;50.082;8.222;2022-11-11T06:20:28;7.10;99.90
1778;DHT22;886;50.082;8.222;2022-11-11T06:22:57;7.10;99.90
1778;DHT22;886;50.082;8.222;2022-11-11T06:25:25;7.20;99.90
1778;DHT22;886;50.082;8.222;2022-11-11T06:28:11;7.20;99.90
1778;DHT22;886;50.082;8.222;2022-11-11T06:30:38;7.10;99.90
1778;DHT22;886;50.082;8.222;2022-11-11T06:33:16;7.00;99.90
1778;DHT22;886;50.082;8.222;2022-11-11T06:35:43;6.80;99.90
1778;DHT22;886;50.082;8.222;2022-11-11T06:38:12;6.80;99.90
1778;DHT22;886;50.082;8.222;2022-11-11T06:40:40;6.90;99.90
1778;DHT22;886;50.082;8.222;2022-11-11T06:43:08;7.00;99.90
1778;DHT22;886;50.082;8.222;2022-11-11T06:45:36;7.00;99.90
1778;DHT22;886;50.082;8.222;2022-11-11T06:48:06;7.10;99.90
1778;DHT22;886;50.082;8.222;2022-11-11T06:50:34;7.20;99.90
1778;DHT22;886;50.082;8.222;2022-11-11T06:53:03;7.30;99.90
1778;DHT22;886;50.082;8.222;2022-11-11T06:55:33;7.30;99.90
1778;DHT22;886;50.082;8.222;2022-11-11T06:58:04;7.40;99.90
1778;DHT22;886;50.082;8.222;2022-11-11T07:00:35;7.40;99.90
1778;DHT22;886;50.082;8.222;2022-11-11T07:03:03;7.30;99.90
1778;DHT22;886;50.082;8.222;2022-11-11T07:05:31;7.20;99.90
1778;DHT22;886;50.082;8.222;2022-11-11T07:08:02;7.10;99.90
1778;DHT22;886;50.082;8.222;2022-11-11T07:10:33;7.20;99.90
1778;DHT22;886;50.082;8.222;2022-11-11T07:13:01;7.20;99.90
1778;DHT22;886;50.082;8.222;2022-11-11T07:15:29;7.30;99.90
1778;DHT22;886;50.082;8.222;2022-11-11T07:17:56;7.30;99.90
1778;DHT22;886;50.082;8.222;2022-11-11T07:20:26;7.20;99.90
1778;DHT22;886;50.082;8.222;2022-11-11T07:22:53;7.10;99.90
1778;DHT22;886;50.082;8.222;2022-11-11T07:25:20;7.10;99.90
1778;DHT22;886;50.082;8.222;2022-11-11T07:27:53;7.10;99.90
1778;DHT22;886;50.082;8.222;2022-11-11T07:30:25;7.00;99.90
1778;DHT22;886;50.082;8.222;2022-11-11T07:32:52;7.10;99.90
1778;DHT22;886;50.082;8.222;2022-11-11T07:35:23;7.00;99.90
1778;DHT22;886;50.082;8.222;2022-11-11T07:37:50;7.10;99.90
1778;DHT22;886;50.082;8.222;2022-11-11T07:40:19;7.20;99.90
1778;DHT22;886;50.082;8.222;2022-11-11T07:42:59;7.20;99.90
1778;DHT22;886;50.082;8.222;2022-11-11T07:45:26;7.20;99.90
1778;DHT22;886;50.082;8.222;2022-11-11T07:48:03;7.20;99.90
1778;DHT22;886;50.082;8.222;2022-11-11T07:50:30;7.30;99.90
1778;DHT22;886;50.082;8.222;2022-11-11T07:52:57;7.30;99.90
1778;DHT22;886;50.082;8.222;2022-11-11T07:55:32;7.40;99.90
1778;DHT22;886;50.082;8.222;2022-11-11T07:58:01;7.40;99.90
1778;DHT22;886;50.082;8.222;2022-11-11T08:00:31;7.30;99.90
1778;DHT22;886;50.082;8.222;2022-11-11T08:02:58;7.30;99.90
1778;DHT22;886;50.082;8.222;2022-11-11T08:05:32;7.50;99.90
1778;DHT22;886;50.082;8.222;2022-11-11T08:08:02;7.40;99.90
1778;DHT22;886;50.082;8.222;2022-11-11T08:10:30;7.40;99.90
1778;DHT22;886;50.082;8.222;2022-11-11T08:13:02;7.50;99.90
1778;DHT22;886;50.082;8.222;2022-11-11T08:15:48;7.50;99.90
1778;DHT22;886;50.082;8.222;2022-11-11T08:18:16;7.50;99.90
1778;DHT22;886;50.082;8.222;2022-11-11T08:20:46;7.40;99.90
1778;DHT22;886;50.082;8.222;2022-11-11T08:23:20;7.50;99.90
1778;DHT22;886;50.082;8.222;2022-11-11T08:26:18;7.60;99.90
1778;DHT22;886;50.082;8.222;2022-11-11T08:28:55;7.70;99.90
1778;DHT22;886;50.082;8.222;2022-11-11T08:31:22;7.70;99.90
1778;DHT22;886;50.082;8.222;2022-11-11T08:33:55;7.80;99.90
1778;DHT22;886;50.082;8.222;2022-11-11T08:36:28;7.80;99.90
1778;DHT22;886;50.082;8.222;2022-11-11T08:38:57;7.70;99.90
1778;DHT22;886;50.082;8.222;2022-11-11T08:41:27;7.80;99.90
1778;DHT22;886;50.082;8.222;2022-11-11T08:43:55;7.80;99.90
1778;DHT22;886;50.082;8.222;2022-11-11T08:46:25;7.80;99.90
1778;DHT22;886;50.082;8.222;2022-11-11T08:48:56;7.80;99.90
1778;DHT22;886;50.082;8.222;2022-11-11T08:51:32;7.80;99.90
1778;DHT22;886;50.082;8.222;2022-11-11T08:54:10;7.90;99.90
1778;DHT22;886;50.082;8.222;2022-11-11T08:56:41;8.00;99.90
1778;DHT22;886;50.082;8.222;2022-11-11T08:59:13;7.90;99.90
1778;DHT22;886;50.082;8.222;2022-11-11T09:01:40;8.00;99.90
1778;DHT22;886;50.082;8.222;2022-11-11T09:04:07;8.10;99.90
1778;DHT22;886;50.082;8.222;2022-11-11T09:06:58;8.10;99.90
1778;DHT22;886;50.082;8.222;2022-11-11T09:09:29;8.00;99.90
1778;DHT22;886;50.082;8.222;2022-11-11T09:11:56;8.00;99.90
1778;DHT22;886;50.082;8.222;2022-11-11T09:14:27;8.00;99.90
1778;DHT22;886;50.082;8.222;2022-11-11T09:16:54;8.10;99.90
1778;DHT22;886;50.082;8.222;2022-11-11T09:19:21;8.00;99.90
1778;DHT22;886;50.082;8.222;2022-11-11T09:21:49;8.10;99.90
1778;DHT22;886;50.082;8.222;2022-11-11T09:24:18;8.20;99.90
1778;DHT22;886;50.082;8.222;2022-11-11T09:26:46;8.20;99.90
1778;DHT22;886;50.082;8.222;2022-11-11T09:29:18;8.20;99.90
1778;DHT22;886;50.082;8.222;2022-11-11T09:31:46;8.20;99.90
1778;DHT22;886;50.082;8.222;2022-11-11T09:34:16;8.30;99.90
1778;DHT22;886;50.082;8.222;2022-11-11T09:36:43;8.30;99.90
1778;DHT22;886;50.082;8.222;2022-11-11T09:39:13;8.40;99.90
1778;DHT22;886;50.082;8.222;2022-11-11T09:42:01;8.40;99.90
1778;DHT22;886;50.082;8.222;2022-11-11T09:48:34;8.50;99.90
1778;DHT22;886;50.082;8.222;2022-11-11T09:51:19;8.50;99.90
1778;DHT22;886;50.082;8.222;2022-11-11T09:53:55;8.50;99.90
1778;DHT22;886;50.082;8.222;2022-11-11T09:56:28;8.40;99.90
1778;DHT22;886;50.082;8.222;2022-11-11T09:59:05;8.50;99.90
1778;DHT22;886;50.082;8.222;2022-11-11T10:01:39;8.60;99.90
1778;DHT22;886;50.082;8.222;2022-11-11T10:04:37;8.50;99.90
1778;DHT22;886;50.082;8.222;2022-11-11T10:07:19;8.60;99.90
1778;DHT22;886;50.082;8.222;2022-11-11T10:09:55;8.70;99.90
1778;DHT22;886;50.082;8.222;2022-11-11T10:12:26;8.60;99.90
1778;DHT22;886;50.082;8.222;2022-11-11T10:15:11;8.60;99.90
1778;DHT22;886;50.082;8.222;2022-11-11T10:18:02;8.50;99.90
1778;DHT22;886;50.082;8.222;2022-11-11T10:20:53;8.60;99.90
1778;DHT22;886;50.082;8.222;2022-11-11T10:23:32;8.70;99.90
1778;DHT22;886;50.082;8.222;2022-11-11T10:26:13;8.70;99.90
1778;DHT22;886;50.082;8.222;2022-11-11T10:28:47;8.80;99.90
1778;DHT22;886;50.082;8.222;2022-11-11T10:31:18;8.80;99.90
1778;DHT22;886;50.082;8.222;2022-11-11T10:33:50;8.70;99.90
1778;DHT22;886;50.082;8.222;2022-11-11T10:36:22;8.70;99.90
1778;DHT22;886;50.082;8.222;2022-11-11T10:38:54;8.70;99.90
1778;DHT22;886;50.082;8.222;2022-11-11T10:41:29;8.70;99.90
1778;DHT22;886;50.082;8.222;2022-11-11T10:44:18;8.80;99.90
1778;DHT22;886;50.082;8.222;2022-11-11T10:46:57;8.80;99.90
1778;DHT22;886;50.082;8.222;2022-11-11T10:49:31;8.80;99.90
1778;DHT22;886;50.082;8.222;2022-11-11T10:52:04;8.80;99.90
1778;DHT22;886;50.082;8.222;2022-11-11T10:54:46;8.90;99.90
1778;DHT22;886;50.082;8.222;2022-11-11T10:57:23;9.00;99.90
1778;DHT22;886;50.082;8.222;2022-11-11T10:59:58;9.10;99.90
1778;DHT22;886;50.082;8.222;2022-11-11T11:02:33;9.10;99.90
1778;DHT22;886;50.082;8.222;2022-11-11T11:05:13;9.10;99.90
1778;DHT22;886;50.082;8.222;2022-11-11T11:07:49;9.20;99.90
1778;DHT22;886;50.082;8.222;2022-11-11T11:10:36;9.30;99.90
1778;DHT22;886;50.082;8.222;2022-11-11T11:13:12;9.30;99.90
1778;DHT22;886;50.082;8.222;2022-11-11T11:15:45;9.20;99.90
1778;DHT22;886;50.082;8.222;2022-11-11T11:18:17;9.20;99.90
1778;DHT22;886;50.082;8.222;2022-11-11T11:21:06;9.10;99.90
1778;DHT22;886;50.082;8.222;2022-11-11T11:23:44;9.10;99.90
1778;DHT22;886;50.082;8.222;2022-11-11T11:26:18;9.30;99.90
1778;DHT22;886;50.082;8.222;2022-11-11T11:28:53;9.30;99.90
1778;DHT22;886;50.082;8.222;2022-11-11T11:31:34;9.10;99.90
1778;DHT22;886;50.082;8.222;2022-11-11T11:34:09;9.20;99.90
1778;DHT22;886;50.082;8.222;2022-11-11T11:36:41;9.20;99.90
1778;DHT22;886;50.082;8.222;2022-11-11T11:39:10;9.30;99.90
1778;DHT22;886;50.082;8.222;2022-11-11T11:41:38;9.40;99.90
1778;DHT22;886;50.082;8.222;2022-11-11T11:44:31;9.40;99.90
1778;DHT22;886;50.082;8.222;2022-11-11T11:47:13;9.40;99.90
1778;DHT22;886;50.082;8.222;2022-11-11T11:53:10;9.50;99.90
1778;DHT22;886;50.082;8.222;2022-11-11T11:56:11;9.50;99.90
1778;DHT22;886;50.082;8.222;2022-11-11T11:58:57;9.40;99.90
1778;DHT22;886;50.082;8.222;2022-11-11T12:01:57;9.40;99.90
1778;DHT22;886;50.082;8.222;2022-11-11T12:10:50;9.60;99.90
1778;DHT22;886;50.082;8.222;2022-11-11T12:13:33;9.70;99.90
1778;DHT22;886;50.082;8.222;2022-11-11T12:16:23;9.70;99.90
1778;DHT22;886;50.082;8.222;2022-11-11T12:19:09;9.80;99.90
1778;DHT22;886;50.082;8.222;2022-11-11T12:22:07;9.80;99.90
1778;DHT22;886;50.082;8.222;2022-11-11T12:25:11;9.90;99.90
1778;DHT22;886;50.082;8.222;2022-11-11T12:27:55;10.00;99.90
1778;DHT22;886;50.082;8.222;2022-11-11T12:30:26;9.90;99.90
1778;DHT22;886;50.082;8.222;2022-11-11T12:33:31;9.90;99.90
1778;DHT22;886;50.082;8.222;2022-11-11T12:36:20;9.90;99.90
1778;DHT22;886;50.082;8.222;2022-11-11T12:38:57;9.80;99.90
1778;DHT22;886;50.082;8.222;2022-11-11T12:41:57;9.90;99.90
1778;DHT22;886;50.082;8.222;2022-11-11T12:44:35;9.80;99.90
1778;DHT22;886;50.082;8.222;2022-11-11T12:47:34;9.80;99.90
1778;DHT22;886;50.082;8.222;2022-11-11T12:50:12;9.80;99.90
1778;DHT22;886;50.082;8.222;2022-11-11T12:52:59;9.80;99.90
1778;DHT22;886;50.082;8.222;2022-11-11T12:55:47;9.70;99.90
1778;DHT22;886;50.082;8.222;2022-11-11T12:58:24;9.70;99.90
1778;DHT22;886;50.082;8.222;2022-11-11T13:01:17;9.70;99.90
1778;DHT22;886;50.082;8.222;2022-11-11T13:07:31;9.70;99.90
1778;DHT22;886;50.082;8.222;2022-11-11T13:10:20;9.70;99.90
1778;DHT22;886;50.082;8.222;2022-11-11T13:13:02;9.70;99.90
1778;DHT22;886;50.082;8.222;2022-11-11T13:15:48;9.70;99.90
1778;DHT22;886;50.082;8.222;2022-11-11T13:18:24;9.70;99.90
1778;DHT22;886;50.082;8.222;2022-11-11T13:20:57;9.70;99.90
1778;DHT22;886;50.082;8.222;2022-11-11T13:23:35;9.70;99.90
1778;DHT22;886;50.082;8.222;2022-11-11T13:26:11;9.70;99.90
1778;DHT22;886;50.082;8.222;2022-11-11T13:28:47;9.70;99.90
1778;DHT22;886;50.082;8.222;2022-11-11T13:31:22;9.70;99.90
1778;DHT22;886;50.082;8.222;2022-11-11T13:33:54;9.70;99.90
1778;DHT22;886;50.082;8.222;2022-11-11T13:36:28;9.80;99.90
1778;DHT22;886;50.082;8.222;2022-11-11T13:39:29;9.70;99.90
1778;DHT22;886;50.082;8.222;2022-11-11T13:42:08;9.70;99.90
1778;DHT22;886;50.082;8.222;2022-11-11T13:44:48;9.80;99.90
1778;DHT22;886;50.082;8.222;2022-11-11T13:47:26;9.90;99.90
1778;DHT22;886;50.082;8.222;2022-11-11T13:50:11;9.70;99.90
1778;DHT22;886;50.082;8.222;2022-11-11T13:53:00;9.70;99.90
1778;DHT22;886;50.082;8.222;2022-11-11T13:55:32;9.80;99.90
1778;DHT22;886;50.082;8.222;2022-11-11T13:58:28;9.80;99.90
1778;DHT22;886;50.082;8.222;2022-11-11T14:01:06;9.90;99.90
1778;DHT22;886;50.082;8.222;2022-11-11T14:04:00;9.90;99.90
1778;DHT22;886;50.082;8.222;2022-11-11T14:06:55;9.90;99.90
1778;DHT22;886;50.082;8.222;2022-11-11T14:09:56;9.90;99.90
1778;DHT22;886;50.082;8.222;2022-11-11T14:12:43;10.00;99.90
1778;DHT22;886;50.082;8.222;2022-11-11T14:15:47;10.00;99.90
1778;DHT22;886;50.082;8.222;2022-11-11T14:18:42;10.00;99.90
1778;DHT22;886;50.082;8.222;2022-11-11T14:21:09;10.00;99.90
1778;DHT22;886;50.082;8.222;2022-11-11T14:23:38;10.00;99.90
1778;DHT22;886;50.082;8.222;2022-11-11T14:26:27;10.00;99.90
1778;DHT22;886;50.082;8.222;2022-11-11T14:28:57;10.10;99.90
1778;DHT22;886;50.082;8.222;2022-11-11T14:31:55;10.10;99.90
1778;DHT22;886;50.082;8.222;2022-11-11T14:34:47;10.10;99.90
1778;DHT22;886;50.082;8.222;2022-11-11T14:40:46;10.00;99.90
1778;DHT22;886;50.082;8.222;2022-11-11T14:43:33;10.00;99.90
1778;DHT22;886;50.082;8.222;2022-11-11T14:46:04;10.00;99.90
1778;DHT22;886;50.082;8.222;2022-11-11T14:51:51;10.00;99.90
1778;DHT22;886;50.082;8.222;2022-11-11T14:55:01;10.00;99.90
1778;DHT22;886;50.082;8.222;2022-11-11T14:57:37;10.00;99.90
1778;DHT22;886;50.082;8.222;2022-11-11T15:00:13;9.90;99.90
1778;DHT22;886;50.082;8.222;2022-11-11T15:02:47;9.90;99.90
1778;DHT22;886;50.082;8.222;2022-11-11T15:05:19;9.90;99.90
1778;DHT22;886;50.082;8.222;2022-11-11T15:08:04;9.90;99.90
1778;DHT22;886;50.082;8.222;2022-11-11T15:11:06;9.90;99.90
1778;DHT22;886;50.082;8.222;2022-11-11T15:13:53;9.80;99.90
1778;DHT22;886;50.082;8.222;2022-11-11T15:16:48;9.80;99.90
1778;DHT22;886;50.082;8.222;2022-11-11T15:19:43;9.70;99.90
1778;DHT22;886;50.082;8.222;2022-11-11T15:22:37;9.70;99.90
1778;DHT22;886;50.082;8.222;2022-11-11T15:25:29;9.70;99.90
1778;DHT22;886;50.082;8.222;2022-11-11T15:28:06;9.70;99.90
1778;DHT22;886;50.082;8.222;2022-11-11T15:30:52;9.80;99.90
1778;DHT22;886;50.082;8.222;2022-11-11T15:33:41;9.80;99.90
1778;DHT22;886;50.082;8.222;2022-11-11T15:36:44;9.80;99.90
1778;DHT22;886;50.082;8.222;2022-11-11T15:39:19;9.80;99.90
1778;DHT22;886;50.082;8.222;2022-11-11T15:41:50;9.80;99.90
1778;DHT22;886;50.082;8.222;2022-11-11T15:44:26;9.80;99.90
1778;DHT22;886;50.082;8.222;2022-11-11T15:46:54;9.80;99.90
1778;DHT22;886;50.082;8.222;2022-11-11T15:49:40;9.80;99.90
1778;DHT22;886;50.082;8.222;2022-11-11T15:52:26;9.80;99.90
1778;DHT22;886;50.082;8.222;2022-11-11T15:54:55;9.70;99.90
1778;DHT22;886;50.082;8.222;2022-11-11T15:57:34;9.70;99.90
1778;DHT22;886;50.082;8.222;2022-11-11T16:00:29;9.70;99.90
1778;DHT22;886;50.082;8.222;2022-11-11T16:02:59;9.80;99.90
1778;DHT22;886;50.082;8.222;2022-11-11T16:05:31;9.70;99.90
1778;DHT22;886;50.082;8.222;2022-11-11T16:08:07;9.70;99.90
1778;DHT22;886;50.082;8.222;2022-11-11T16:10:37;9.60;99.90
1778;DHT22;886;50.082;8.222;2022-11-11T16:13:13;9.50;99.90
1778;DHT22;886;50.082;8.222;2022-11-11T16:15:54;9.50;99.90
1778;DHT22;886;50.082;8.222;2022-11-11T16:18:25;9.50;99.90
1778;DHT22;886;50.082;8.222;2022-11-11T16:20:59;9.30;99.90
1778;DHT22;886;50.082;8.222;2022-11-11T16:23:29;9.30;99.90
1778;DHT22;886;50.082;8.222;2022-11-11T16:26:00;9.40;99.90
1778;DHT22;886;50.082;8.222;2022-11-11T16:28:37;9.30;99.90
1778;DHT22;886;50.082;8.222;2022-11-11T16:31:29;9.30;99.90
1778;DHT22;886;50.082;8.222;2022-11-11T16:34:46;9.30;99.90
1778;DHT22;886;50.082;8.222;2022-11-11T16:37:16;9.40;99.90
1778;DHT22;886;50.082;8.222;2022-11-11T16:39:49;9.40;99.90
1778;DHT22;886;50.082;8.222;2022-11-11T16:42:18;9.40;99.90
1778;DHT22;886;50.082;8.222;2022-11-11T16:44:49;9.50;99.90
1778;DHT22;886;50.082;8.222;2022-11-11T16:47:50;9.40;99.90
1778;DHT22;886;50.082;8.222;2022-11-11T16:50:20;9.30;99.90
1778;DHT22;886;50.082;8.222;2022-11-11T16:52:52;9.20;99.90
1778;DHT22;886;50.082;8.222;2022-11-11T16:55:32;9.20;99.90
1778;DHT22;886;50.082;8.222;2022-11-11T16:58:09;9.20;99.90
1778;DHT22;886;50.082;8.222;2022-11-11T17:00:43;9.30;99.90
1778;DHT22;886;50.082;8.222;2022-11-11T17:03:12;9.40;99.90
1778;DHT22;886;50.082;8.222;2022-11-11T17:05:54;9.40;99.90
1778;DHT22;886;50.082;8.222;2022-11-11T17:08:38;9.50;99.90
1778;DHT22;886;50.082;8.222;2022-11-11T17:11:07;9.40;99.90
1778;DHT22;886;50.082;8.222;2022-11-11T17:13:35;9.60;99.90
1778;DHT22;886;50.082;8.222;2022-11-11T17:16:08;9.50;99.90
1778;DHT22;886;50.082;8.222;2022-11-11T17:18:38;9.50;99.90
1778;DHT22;886;50.082;8.222;2022-11-11T17:21:06;9.60;99.90
1778;DHT22;886;50.082;8.222;2022-11-11T17:23:40;9.60;99.90
1778;DHT22;886;50.082;8.222;2022-11-11T17:26:07;9.60;99.90
1778;DHT22;886;50.082;8.222;2022-11-11T17:28:35;9.60;99.90
1778;DHT22;886;50.082;8.222;2022-11-11T17:31:03;9.60;99.90
1778;DHT22;886;50.082;8.222;2022-11-11T17:33:36;9.50;99.90
1778;DHT22;886;50.082;8.222;2022-11-11T17:36:05;9.50;99.90
1778;DHT22;886;50.082;8.222;2022-11-11T17:38:35;9.50;99.90
1778;DHT22;886;50.082;8.222;2022-11-11T17:41:05;9.40;99.90
1778;DHT22;886;50.082;8.222;2022-11-11T17:43:32;9.50;99.90
1778;DHT22;886;50.082;8.222;2022-11-11T17:45:59;9.50;99.90
1778;DHT22;886;50.082;8.222;2022-11-11T17:48:30;9.50;99.90
1778;DHT22;886;50.082;8.222;2022-11-11T17:51:14;9.60;99.90
1778;DHT22;886;50.082;8.222;2022-11-11T17:53:41;9.60;99.90
1778;DHT22;886;50.082;8.222;2022-11-11T17:56:12;9.70;99.90
1778;DHT22;886;50.082;8.222;2022-11-11T17:58:40;9.70;99.90